Time;durP1;ratioP1;P1;durP2;ratioP2;P2;SDS_P1;SDS_P2;PMS_P1;PMS_P2;Temp;Humidity;BMP_temperature;BMP_pressure;BME280_temperature;BME280_humidity;BME280_pressure;Samples;Min_cycle;Max_cycle;Signal;HPM_P1;HPM_P2
2023/07/22 00:00:43;;;;;;;14.60;8.40;;;13.30;99.90;;;;;;5001844;28;21094;-51
2023/07/22 00:03:08;;;;;;;13.70;8.38;;;13.30;99.90;;;;;;5003976;28;20053;-47
2023/07/22 00:05:34;;;;;;;16.15;8.55;;;13.30;99.90;;;;;;5003868;28;20042;-48
2023/07/22 00:08:00;;;;;;;14.30;8.38;;;13.20;99.90;;;;;;5003354;28;20058;-47
2023/07/22 00:10:25;;;;;;;13.95;8.35;;;13.20;99.90;;;;;;5002962;28;20385;-47
2023/07/22 00:12:51;;;;;;;15.18;8.25;;;13.20;99.90;;;;;;5003325;28;20044;-49
2023/07/22 00:15:17;;;;;;;15.90;7.82;;;13.20;99.90;;;;;;4996118;28;20060;-47
2023/07/22 00:17:43;;;;;;;15.00;8.02;;;13.40;99.90;;;;;;4985879;28;20074;-47
2023/07/22 00:20:13;;;;;;;13.55;7.55;;;13.30;99.90;;;;;;4984023;28;20054;-47
2023/07/22 00:22:39;;;;;;;14.65;7.78;;;13.10;99.90;;;;;;4982518;28;20061;-47
2023/07/22 00:25:10;;;;;;;12.20;7.63;;;13.10;99.90;;;;;;4983891;28;20509;-49
2023/07/22 00:27:37;;;;;;;14.13;8.15;;;13.10;99.90;;;;;;4983928;28;20064;-50
2023/07/22 00:30:05;;;;;;;13.88;7.50;;;13.00;99.90;;;;;;4982573;28;20105;-48
2023/07/22 00:32:31;;;;;;;13.35;7.50;;;13.00;99.90;;;;;;4983653;28;20448;-47
2023/07/22 00:34:57;;;;;;;13.40;7.55;;;13.00;99.90;;;;;;4982853;28;20054;-48
2023/07/22 00:37:22;;;;;;;12.82;6.93;;;13.00;99.90;;;;;;4983488;28;20104;-47
2023/07/22 00:39:48;;;;;;;13.93;7.72;;;13.00;99.90;;;;;;4982547;28;20434;-46
2023/07/22 00:42:13;;;;;;;15.07;7.85;;;13.00;99.90;;;;;;4982213;28;20448;-50
2023/07/22 00:44:39;;;;;;;12.23;7.75;;;13.00;99.90;;;;;;4982777;28;20376;-49
2023/07/22 00:47:05;;;;;;;14.60;7.95;;;13.00;99.90;;;;;;4982732;28;20072;-47
2023/07/22 00:49:31;;;;;;;13.48;7.82;;;13.00;99.90;;;;;;4983760;28;20046;-49
2023/07/22 00:52:01;;;;;;;12.13;7.65;;;12.90;99.90;;;;;;4982844;28;20153;-51
2023/07/22 00:54:27;;;;;;;13.23;7.18;;;12.80;99.90;;;;;;4983412;28;20050;-46
2023/07/22 00:56:54;;;;;;;12.45;7.15;;;12.80;99.90;;;;;;4985671;28;20054;-48
2023/07/22 00:59:21;;;;;;;12.60;7.35;;;12.80;99.90;;;;;;4986630;28;20057;-49
2023/07/22 01:01:46;;;;;;;12.45;7.50;;;12.80;99.90;;;;;;4986061;28;20042;-49
2023/07/22 01:04:15;;;;;;;14.80;7.18;;;12.90;99.90;;;;;;4987403;28;20183;-52
2023/07/22 01:06:42;;;;;;;13.63;7.28;;;12.90;99.90;;;;;;4985616;28;20118;-49
2023/07/22 01:09:09;;;;;;;14.32;7.07;;;12.80;99.90;;;;;;5106536;22;20060;-45
2023/07/22 01:11:34;;;;;;;12.90;7.25;;;12.80;99.90;;;;;;5062576;28;20057;-45
2023/07/22 01:14:01;;;;;;;13.38;7.47;;;12.90;99.90;;;;;;5056959;28;20048;-48
2023/07/22 01:16:27;;;;;;;9.98;7.10;;;12.70;99.90;;;;;;5055551;28;20052;-46
2023/07/22 01:18:54;;;;;;;12.85;7.05;;;12.80;99.90;;;;;;5066442;28;20040;-46
2023/07/22 01:21:25;;;;;;;10.57;6.90;;;12.70;99.90;;;;;;5065833;28;20503;-49
2023/07/22 01:23:51;;;;;;;11.68;6.30;;;12.70;99.90;;;;;;5065028;28;20514;-53
2023/07/22 01:26:17;;;;;;;15.88;7.03;;;12.70;99.90;;;;;;5049320;28;20372;-51
2023/07/22 01:28:43;;;;;;;12.13;6.25;;;12.70;99.90;;;;;;5046397;28;20056;-53
2023/07/22 01:31:09;;;;;;;9.18;6.28;;;12.60;99.90;;;;;;5044933;28;20068;-51
2023/07/22 01:33:35;;;;;;;9.32;5.82;;;12.60;99.90;;;;;;5045863;28;20053;-49
2023/07/22 01:36:01;;;;;;;12.05;6.65;;;12.60;99.90;;;;;;5049437;28;20028;-51
2023/07/22 01:38:29;;;;;;;9.55;5.65;;;12.60;99.90;;;;;;5054211;28;20052;-49
2023/07/22 01:40:54;;;;;;;10.13;5.63;;;12.60;99.90;;;;;;5045129;28;20654;-47
2023/07/22 01:43:21;;;;;;;9.00;5.22;;;12.50;99.90;;;;;;5046529;28;20044;-48
2023/07/22 01:45:46;;;;;;;9.15;5.00;;;12.50;99.90;;;;;;5045432;28;20084;-48
2023/07/22 01:48:12;;;;;;;8.40;4.82;;;12.60;99.90;;;;;;5045639;28;20214;-54
2023/07/22 01:50:37;;;;;;;9.60;5.47;;;12.60;99.90;;;;;;5061397;28;20936;-48
2023/07/22 01:53:05;;;;;;;9.82;5.20;;;12.60;99.90;;;;;;5046442;28;20059;-47
2023/07/22 01:55:32;;;;;;;9.30;5.20;;;12.60;99.90;;;;;;5046068;28;20403;-48
2023/07/22 01:57:58;;;;;;;8.50;5.18;;;12.60;99.90;;;;;;5060332;28;20053;-47
2023/07/22 02:00:24;;;;;;;9.80;4.90;;;12.60;99.90;;;;;;5044903;28;20040;-50
2023/07/22 02:02:49;;;;;;;7.63;5.03;;;12.60;99.90;;;;;;5045640;28;20483;-47
2023/07/22 02:05:15;;;;;;;9.18;4.78;;;12.60;99.90;;;;;;5044567;28;20086;-50
2023/07/22 02:07:41;;;;;;;7.60;5.03;;;12.60;99.90;;;;;;5043972;28;20083;-49
2023/07/22 02:10:08;;;;;;;9.15;5.75;;;12.50;99.90;;;;;;5044807;28;20114;-55
2023/07/22 02:12:33;;;;;;;9.57;5.07;;;12.50;99.90;;;;;;5045134;28;20055;-49
2023/07/22 02:14:59;;;;;;;7.72;5.10;;;12.50;99.90;;;;;;5050316;28;20131;-48
2023/07/22 02:17:24;;;;;;;10.82;4.97;;;12.50;99.90;;;;;;5050170;28;20048;-50
2023/07/22 02:19:51;;;;;;;9.40;4.97;;;12.70;99.90;;;;;;5045178;28;20102;-51
2023/07/22 02:22:17;;;;;;;10.00;5.32;;;12.50;99.90;;;;;;5044249;28;20081;-51
2023/07/22 02:24:43;;;;;;;8.80;5.05;;;12.40;99.90;;;;;;5045761;28;20060;-50
2023/07/22 02:27:08;;;;;;;9.63;5.43;;;12.50;99.90;;;;;;5045314;28;20041;-54
2023/07/22 02:29:34;;;;;;;7.90;4.95;;;12.40;99.90;;;;;;5044171;28;20053;-50
2023/07/22 02:32:01;;;;;;;11.23;5.38;;;12.60;99.90;;;;;;5043994;28;20120;-50
2023/07/22 02:34:26;;;;;;;8.15;4.85;;;12.30;99.90;;;;;;5045199;28;20111;-48
2023/07/22 02:36:52;;;;;;;10.90;5.15;;;12.30;99.90;;;;;;5044988;28;20084;-49
2023/07/22 02:39:18;;;;;;;8.43;4.85;;;12.30;99.90;;;;;;5044267;28;20076;-49
2023/07/22 02:41:43;;;;;;;9.43;5.28;;;12.40;99.90;;;;;;5045618;28;20043;-51
2023/07/22 02:44:09;;;;;;;8.38;5.18;;;12.30;99.90;;;;;;5044688;28;20530;-51
2023/07/22 02:46:35;;;;;;;8.25;5.35;;;12.30;99.90;;;;;;5043512;28;20419;-50
2023/07/22 02:49:00;;;;;;;9.57;5.65;;;12.30;99.90;;;;;;5043779;28;20460;-51
2023/07/22 02:51:26;;;;;;;8.07;5.20;;;12.20;99.90;;;;;;5044492;28;20049;-51
2023/07/22 02:53:51;;;;;;;13.05;5.82;;;12.20;99.90;;;;;;5044712;28;20044;-50
2023/07/22 02:56:17;;;;;;;10.18;5.47;;;12.20;99.90;;;;;;5044385;28;20116;-50
2023/07/22 02:58:43;;;;;;;9.10;5.25;;;12.10;99.90;;;;;;5044579;28;20127;-49
2023/07/22 03:01:10;;;;;;;12.05;5.53;;;12.10;99.90;;;;;;5043472;28;20040;-47
2023/07/22 03:03:36;;;;;;;12.90;5.78;;;12.10;99.90;;;;;;5044048;28;20059;-46
2023/07/22 03:06:03;;;;;;;11.35;5.88;;;12.00;99.90;;;;;;5042933;28;20094;-50
2023/07/22 03:08:29;;;;;;;11.18;6.13;;;12.00;99.90;;;;;;5044266;28;20098;-49
2023/07/22 03:10:54;;;;;;;10.98;6.15;;;12.00;99.90;;;;;;5043726;28;20167;-47
2023/07/22 03:13:20;;;;;;;10.63;6.03;;;12.20;99.90;;;;;;5042964;28;20045;-51
2023/07/22 03:15:45;;;;;;;11.65;7.03;;;12.00;99.90;;;;;;5054637;28;20498;-47
2023/07/22 03:18:11;;;;;;;11.52;6.13;;;12.00;99.90;;;;;;5043341;28;20037;-47
2023/07/22 03:20:37;;;;;;;11.27;6.28;;;12.00;99.90;;;;;;5059130;28;20087;-48
2023/07/22 03:23:04;;;;;;;12.05;6.07;;;11.90;99.90;;;;;;5043176;28;20644;-52
2023/07/22 03:25:30;;;;;;;11.77;6.40;;;12.00;99.90;;;;;;5043899;28;20080;-49
2023/07/22 03:27:56;;;;;;;10.65;6.38;;;12.00;99.90;;;;;;5043408;28;20138;-50
2023/07/22 03:30:22;;;;;;;12.98;6.53;;;12.00;99.90;;;;;;5041666;28;20049;-47
2023/07/22 03:32:50;;;;;;;13.00;7.03;;;11.90;99.90;;;;;;5043191;28;20161;-47
2023/07/22 03:35:16;;;;;;;13.30;6.70;;;11.90;99.90;;;;;;5043682;28;20041;-51
2023/07/22 03:37:42;;;;;;;9.90;5.93;;;11.90;99.90;;;;;;5043832;28;20403;-51
2023/07/22 03:40:41;;;;;;;14.15;6.78;;;11.90;99.90;;;;;;5043219;28;20037;-49
2023/07/22 03:43:01;;;;;;;12.60;6.63;;;11.80;99.90;;;;;;5042157;28;20585;-47
2023/07/22 03:45:27;;;;;;;12.68;7.30;;;11.70;99.90;;;;;;5041150;28;20037;-47
2023/07/22 03:47:56;;;;;;;13.23;7.38;;;11.70;99.90;;;;;;5042731;28;20053;-52
2023/07/22 03:50:21;;;;;;;12.25;7.05;;;11.80;99.90;;;;;;5043965;28;20040;-48
2023/07/22 03:52:47;;;;;;;14.05;7.18;;;11.70;99.90;;;;;;5043344;28;20045;-51
2023/07/22 03:55:13;;;;;;;17.10;7.78;;;11.70;99.90;;;;;;5043190;28;20380;-51
2023/07/22 03:57:39;;;;;;;12.38;7.85;;;11.70;99.90;;;;;;5043186;28;20076;-54
2023/07/22 04:00:05;;;;;;;17.70;8.80;;;11.70;99.90;;;;;;5057107;28;20446;-52
2023/07/22 04:02:31;;;;;;;13.95;8.48;;;11.60;99.90;;;;;;5057933;28;20045;-50
2023/07/22 04:04:57;;;;;;;15.80;8.68;;;11.60;99.90;;;;;;5043327;28;20041;-51
2023/07/22 04:07:22;;;;;;;15.05;8.48;;;11.70;99.90;;;;;;5058448;28;20565;-52
2023/07/22 04:09:48;;;;;;;17.60;8.20;;;11.70;99.90;;;;;;5042655;28;20053;-50
2023/07/22 04:12:14;;;;;;;14.93;8.25;;;11.70;99.90;;;;;;5042948;28;20047;-52
2023/07/22 04:14:40;;;;;;;14.30;8.45;;;11.70;99.90;;;;;;5045257;28;20049;-50
2023/07/22 04:17:06;;;;;;;14.20;8.20;;;11.70;99.90;;;;;;5050119;28;20669;-54
2023/07/22 04:19:32;;;;;;;13.60;8.50;;;11.80;99.90;;;;;;5043173;28;20045;-47
2023/07/22 04:21:57;;;;;;;12.75;8.20;;;11.70;99.90;;;;;;5043459;28;20037;-48
2023/07/22 04:24:24;;;;;;;16.80;8.55;;;11.70;99.90;;;;;;5042815;28;20087;-48
2023/07/22 04:26:51;;;;;;;15.65;8.07;;;11.80;99.90;;;;;;5042761;28;20102;-49
2023/07/22 04:29:16;;;;;;;16.60;9.02;;;11.80;99.90;;;;;;5042267;28;20120;-48
2023/07/22 04:31:42;;;;;;;12.98;8.52;;;11.90;99.90;;;;;;5047218;28;20464;-51
2023/07/22 04:34:09;;;;;;;13.85;7.97;;;12.00;99.90;;;;;;5046583;28;20120;-46
2023/07/22 04:36:34;;;;;;;13.07;8.55;;;12.00;99.90;;;;;;5047253;28;20088;-51
2023/07/22 04:39:00;;;;;;;12.27;8.48;;;12.10;99.90;;;;;;5045031;28;20076;-49
2023/07/22 04:41:26;;;;;;;11.75;8.23;;;12.20;99.90;;;;;;5047368;28;20048;-48
2023/07/22 04:43:51;;;;;;;14.63;8.18;;;12.20;99.90;;;;;;5047048;28;20056;-46
2023/07/22 04:46:17;;;;;;;15.43;7.95;;;12.20;99.90;;;;;;5046502;28;20048;-49
2023/07/22 04:48:43;;;;;;;12.95;8.63;;;12.30;99.90;;;;;;5046876;28;20048;-51
2023/07/22 04:51:09;;;;;;;15.45;8.63;;;12.40;99.90;;;;;;5046451;28;20049;-52
2023/07/22 04:53:34;;;;;;;12.50;8.15;;;12.50;99.90;;;;;;5046918;28;20139;-48
2023/07/22 04:56:01;;;;;;;12.50;8.32;;;12.70;99.90;;;;;;5047068;28;20112;-54
2023/07/22 04:58:27;;;;;;;11.13;7.72;;;12.80;99.90;;;;;;5047112;28;20084;-49
2023/07/22 05:00:52;;;;;;;15.02;8.00;;;12.80;99.90;;;;;;5061229;28;20478;-50
2023/07/22 05:03:18;;;;;;;12.82;8.23;;;12.70;99.90;;;;;;5046763;28;20033;-47
2023/07/22 05:05:44;;;;;;;13.60;7.85;;;12.70;99.90;;;;;;5046889;28;20049;-46
2023/07/22 05:08:10;;;;;;;11.18;7.65;;;12.80;99.90;;;;;;5061930;28;20052;-49
2023/07/22 05:10:39;;;;;;;14.23;7.70;;;12.70;99.90;;;;;;5046080;28;20041;-49
2023/07/22 05:13:05;;;;;;;13.68;7.63;;;12.80;99.90;;;;;;5046536;28;20045;-51
2023/07/22 05:15:30;;;;;;;14.02;7.97;;;12.90;99.90;;;;;;5056412;28;20536;-49
2023/07/22 05:17:56;;;;;;;10.35;6.85;;;12.80;99.90;;;;;;5046314;28;20051;-51
2023/07/22 05:20:21;;;;;;;13.75;7.47;;;12.90;99.90;;;;;;5046966;28;20234;-51
2023/07/22 05:22:48;;;;;;;11.55;7.88;;;12.80;99.90;;;;;;5046735;28;20044;-49
2023/07/22 05:25:14;;;;;;;13.50;8.57;;;12.90;99.90;;;;;;5045451;28;20048;-54
2023/07/22 05:27:40;;;;;;;16.98;8.18;;;12.80;99.90;;;;;;5046132;28;20079;-48
2023/07/22 05:30:07;;;;;;;14.10;8.38;;;12.90;99.90;;;;;;5045847;28;20503;-49
2023/07/22 05:32:32;;;;;;;12.93;8.25;;;12.90;99.90;;;;;;5046958;28;20063;-47
2023/07/22 05:34:58;;;;;;;13.43;8.00;;;13.00;99.90;;;;;;5046231;28;20047;-47
2023/07/22 05:37:25;;;;;;;14.27;8.15;;;12.90;99.90;;;;;;5047306;28;20087;-48
2023/07/22 05:39:50;;;;;;;13.38;8.30;;;13.00;99.90;;;;;;5070178;28;20063;-49
2023/07/22 05:42:17;;;;;;;14.35;8.15;;;13.10;99.90;;;;;;5064637;28;20449;-48
2023/07/22 05:44:43;;;;;;;12.38;8.23;;;13.10;99.90;;;;;;5064706;28;20112;-45
2023/07/22 05:47:09;;;;;;;13.38;9.05;;;13.20;99.90;;;;;;5065498;28;20056;-51
2023/07/22 05:49:34;;;;;;;15.93;9.38;;;13.20;99.90;;;;;;5065248;28;20051;-46
2023/07/22 05:52:00;;;;;;;14.70;8.85;;;13.20;99.90;;;;;;5065063;28;20045;-47
2023/07/22 05:54:25;;;;;;;16.05;9.63;;;13.30;99.90;;;;;;5066315;28;20048;-48
2023/07/22 05:56:51;;;;;;;13.60;8.73;;;13.30;99.90;;;;;;5065696;28;20098;-50
2023/07/22 05:59:17;;;;;;;17.40;9.63;;;13.70;99.90;;;;;;5063591;28;20048;-48
2023/07/22 06:01:43;;;;;;;13.98;8.98;;;13.70;99.90;;;;;;5057941;28;20098;-47
2023/07/22 06:04:08;;;;;;;16.38;9.25;;;13.70;99.90;;;;;;5045344;28;20178;-49
2023/07/22 06:06:34;;;;;;;17.05;10.02;;;13.80;99.90;;;;;;5044988;28;20132;-47
2023/07/22 06:09:00;;;;;;;15.23;9.02;;;13.80;99.90;;;;;;5044631;28;20049;-54
2023/07/22 06:11:26;;;;;;;14.23;9.27;;;13.90;99.90;;;;;;5045513;28;20076;-48
2023/07/22 06:13:51;;;;;;;14.50;9.65;;;13.90;99.90;;;;;;5045893;28;20066;-52
2023/07/22 06:16:17;;;;;;;14.52;9.70;;;13.90;99.90;;;;;;5053655;28;20271;-51
2023/07/22 06:18:43;;;;;;;13.50;9.35;;;14.10;99.90;;;;;;5044980;28;20049;-47
2023/07/22 06:21:09;;;;;;;16.13;9.85;;;14.20;99.90;;;;;;5045161;28;20548;-51
2023/07/22 06:23:34;;;;;;;15.88;10.23;;;14.60;99.90;;;;;;5060232;28;20086;-52
2023/07/22 06:26:00;;;;;;;15.98;9.93;;;14.70;99.90;;;;;;5044313;28;20396;-51
2023/07/22 06:28:25;;;;;;;13.88;9.77;;;14.90;99.90;;;;;;5045587;28;20045;-51
2023/07/22 06:30:51;;;;;;;13.82;8.88;;;15.20;99.90;;;;;;5044009;28;20101;-49
2023/07/22 06:33:17;;;;;;;15.38;9.48;;;15.70;99.90;;;;;;5044892;28;20539;-48
2023/07/22 06:35:42;;;;;;;18.05;9.65;;;16.20;99.90;;;;;;5044534;28;20136;-49
2023/07/22 06:38:08;;;;;;;13.75;8.98;;;16.50;99.90;;;;;;5044679;28;20040;-51
2023/07/22 06:40:33;;;;;;;13.13;8.85;;;16.50;99.90;;;;;;5044098;28;20040;-49
2023/07/22 06:42:59;;;;;;;12.90;8.88;;;16.90;99.90;;;;;;5043877;28;20052;-54
2023/07/22 06:45:25;;;;;;;13.15;8.80;;;17.00;99.90;;;;;;5045051;28;20032;-47
2023/07/22 06:47:50;;;;;;;13.85;8.50;;;17.20;99.90;;;;;;5044878;28;20051;-51
2023/07/22 06:50:16;;;;;;;12.73;8.38;;;17.30;99.90;;;;;;5044419;28;20091;-52
2023/07/22 06:52:41;;;;;;;11.63;8.63;;;17.40;99.90;;;;;;5043817;28;20434;-51
2023/07/22 06:55:07;;;;;;;14.05;9.02;;;17.50;99.90;;;;;;5044247;28;20103;-49
2023/07/22 06:57:33;;;;;;;11.35;7.85;;;17.60;99.90;;;;;;5044773;28;20501;-49
2023/07/22 06:59:59;;;;;;;13.07;8.75;;;17.70;99.90;;;;;;5043235;28;20056;-53
2023/07/22 07:02:25;;;;;;;13.52;9.07;;;17.60;99.90;;;;;;5044714;28;20041;-53
2023/07/22 07:04:50;;;;;;;15.00;8.98;;;17.20;99.90;;;;;;5044561;28;20044;-51
2023/07/22 07:07:16;;;;;;;15.27;9.27;;;16.90;99.90;;;;;;5043879;28;20045;-53
2023/07/22 07:09:42;;;;;;;14.18;9.23;;;16.90;99.90;;;;;;5041954;28;20053;-53
2023/07/22 07:12:08;;;;;;;15.93;9.05;;;17.10;99.90;;;;;;5044086;28;20055;-52
2023/07/22 07:14:34;;;;;;;12.63;8.57;;;17.30;99.90;;;;;;5046189;28;20091;-47
2023/07/22 07:17:00;;;;;;;13.80;8.70;;;17.40;99.90;;;;;;5051975;28;20200;-50
2023/07/22 07:19:26;;;;;;;14.45;9.25;;;17.50;99.90;;;;;;5044108;28;20045;-52
2023/07/22 07:21:52;;;;;;;12.73;8.57;;;17.50;99.90;;;;;;5044055;28;20091;-50
2023/07/22 07:24:18;;;;;;;13.30;9.43;;;17.50;99.90;;;;;;5043792;28;20724;-53
2023/07/22 07:26:44;;;;;;;12.88;9.18;;;17.60;99.90;;;;;;5043193;28;20044;-49
2023/07/22 07:29:10;;;;;;;12.82;8.63;;;17.60;99.90;;;;;;5042628;28;20101;-53
2023/07/22 07:31:35;;;;;;;15.02;9.57;;;17.40;99.90;;;;;;5043477;28;20048;-47
2023/07/22 07:34:01;;;;;;;15.73;8.88;;;17.40;99.90;;;;;;5043524;28;20044;-52
2023/07/22 07:36:26;;;;;;;13.88;9.10;;;17.40;99.90;;;;;;5043647;28;20049;-48
2023/07/22 07:38:52;;;;;;;12.73;9.10;;;17.20;99.90;;;;;;5043302;28;20041;-48
2023/07/22 07:41:18;;;;;;;14.20;9.48;;;17.10;99.90;;;;;;5043264;28;20112;-53
2023/07/22 07:43:44;;;;;;;13.40;9.18;;;17.20;99.90;;;;;;5041849;28;20049;-48
2023/07/22 07:46:23;;;;;;;13.10;9.35;;;17.10;99.90;;;;;;5058745;28;20044;-48
2023/07/22 07:48:52;;;;;;;13.73;9.63;;;17.20;99.90;;;;;;5042401;28;20036;-49
2023/07/22 07:51:19;;;;;;;16.58;9.40;;;16.90;99.90;;;;;;5042516;28;20045;-48
2023/07/22 07:53:49;;;;;;;18.00;9.73;;;16.90;99.90;;;;;;5042587;28;20083;-46
2023/07/22 07:56:17;;;;;;;13.73;9.38;;;16.80;99.90;;;;;;5042433;28;20045;-49
2023/07/22 07:58:43;;;;;;;12.73;9.13;;;16.90;99.90;;;;;;5042514;28;20400;-49
2023/07/22 08:01:09;;;;;;;12.23;8.88;;;17.10;99.90;;;;;;5041712;28;20037;-55
2023/07/22 08:03:37;;;;;;;12.98;8.95;;;17.20;99.90;;;;;;5044942;28;20049;-49
2023/07/22 08:06:03;;;;;;;14.05;9.00;;;17.20;99.90;;;;;;5045997;28;20048;-51
2023/07/22 08:08:29;;;;;;;12.50;8.95;;;17.20;99.90;;;;;;5043319;28;20045;-53
2023/07/22 08:11:02;;;;;;;13.30;8.73;;;17.20;99.90;;;;;;5046804;28;20047;-47
2023/07/22 08:13:30;;;;;;;13.32;8.27;;;17.20;99.90;;;;;;5050124;28;20044;-48
2023/07/22 08:15:57;;;;;;;12.80;8.93;;;17.30;99.90;;;;;;5051512;28;20049;-50
2023/07/22 08:18:23;;;;;;;12.48;8.60;;;17.50;99.90;;;;;;5048283;28;20371;-50
2023/07/22 08:20:50;;;;;;;9.95;7.43;;;17.50;99.90;;;;;;5040931;28;20040;-54
2023/07/22 08:23:16;;;;;;;13.60;8.38;;;17.60;99.90;;;;;;5042860;28;20067;-51
2023/07/22 08:25:41;;;;;;;13.27;8.73;;;17.70;99.90;;;;;;5042645;28;20487;-51
2023/07/22 08:28:07;;;;;;;13.05;8.25;;;17.80;99.90;;;;;;5043256;28;20428;-52
2023/07/22 08:30:33;;;;;;;12.82;7.20;;;18.00;99.90;;;;;;5041302;28;20675;-48
2023/07/22 08:32:58;;;;;;;10.25;7.47;;;18.10;99.90;;;;;;5042586;28;20507;-47
2023/07/22 08:35:24;;;;;;;10.75;7.80;;;18.20;99.90;;;;;;5042942;28;20041;-50
2023/07/22 08:37:50;;;;;;;10.23;7.88;;;18.30;99.90;;;;;;5042401;28;20046;-51
2023/07/22 08:40:16;;;;;;;11.25;7.78;;;18.40;99.90;;;;;;5042755;28;20601;-48
2023/07/22 08:42:42;;;;;;;11.60;8.07;;;18.60;99.90;;;;;;5042831;28;20091;-49
2023/07/22 08:45:10;;;;;;;11.95;7.75;;;18.70;99.90;;;;;;5041746;28;20212;-51
2023/07/22 08:47:44;;;;;;;12.85;7.82;;;18.70;99.90;;;;;;5041576;28;20392;-46
2023/07/22 08:50:11;;;;;;;;;;;18.50;99.90;;;;;;5042989;28;20040;-48
2023/07/22 08:52:37;;;;;;;10.98;7.35;;;18.30;99.90;;;;;;5042953;28;19929;-46
2023/07/22 08:55:04;;;;;;;10.20;6.95;;;18.30;99.90;;;;;;5042874;28;20094;-54
2023/07/22 08:57:30;;;;;;;11.60;6.38;;;18.40;99.90;;;;;;5043143;28;20045;-50
2023/07/22 08:59:57;;;;;;;10.20;7.00;;;18.60;99.90;;;;;;5042092;28;20087;-47
2023/07/22 09:02:24;;;;;;;10.40;6.93;;;18.70;99.90;;;;;;5050627;28;20036;-49
2023/07/22 09:04:50;;;;;;;9.20;6.90;;;18.80;99.90;;;;;;5063255;28;20136;-48
2023/07/22 09:07:17;;;;;;;9.93;7.15;;;18.70;99.90;;;;;;5063072;28;20640;-48
2023/07/22 09:09:45;;;;;;;9.00;6.45;;;18.90;99.90;;;;;;5062769;28;20144;-50
2023/07/22 09:12:13;;;;;;;10.13;5.80;;;18.80;99.90;;;;;;5060778;28;20059;-49
2023/07/22 09:14:39;;;;;;;8.43;5.05;;;18.80;99.90;;;;;;5055287;28;20041;-55
2023/07/22 09:17:06;;;;;;;7.20;5.15;;;19.00;99.90;;;;;;5051896;28;20406;-52
2023/07/22 09:19:31;;;;;;;10.63;5.75;;;19.20;99.90;;;;;;5046021;28;20049;-54
2023/07/22 09:21:58;;;;;;;10.68;6.00;;;19.20;99.90;;;;;;5046537;28;20044;-55
2023/07/22 09:24:27;;;;;;;8.60;5.97;;;19.00;99.90;;;;;;5046760;28;20041;-53
2023/07/22 09:26:54;;;;;;;10.75;7.00;;;18.90;99.90;;;;;;5045584;28;20439;-50
2023/07/22 09:29:41;;;;;;;11.13;7.32;;;19.00;99.90;;;;;;5044690;28;20049;-50
2023/07/22 09:32:07;;;;;;;10.73;6.72;;;18.90;99.90;;;;;;5045440;28;20076;-56
2023/07/22 09:34:33;;;;;;;11.52;7.63;;;18.80;99.90;;;;;;5046538;28;20080;-50
2023/07/22 09:37:03;;;;;;;9.55;7.30;;;18.70;99.90;;;;;;5045925;28;20391;-52
2023/07/22 09:39:29;;;;;;;8.98;6.07;;;18.50;99.90;;;;;;5046184;28;20053;-53
2023/07/22 09:41:55;;;;;;;10.32;5.85;;;18.40;99.90;;;;;;5044987;28;20040;-55
2023/07/22 09:44:30;;;;;;;10.40;6.78;;;18.30;99.90;;;;;;5045154;28;20121;-52
2023/07/22 09:46:55;;;;;;;9.35;6.07;;;18.10;99.90;;;;;;5061005;28;20413;-51
2023/07/22 09:49:21;;;;;;;11.27;6.65;;;18.00;99.90;;;;;;5045288;28;20045;-52
2023/07/22 09:51:47;;;;;;;12.07;6.85;;;17.90;99.90;;;;;;5045493;28;20113;-48
2023/07/22 09:54:12;;;;;;;11.10;6.72;;;17.90;99.90;;;;;;5045700;28;20041;-51
2023/07/22 09:56:46;;;;;;;12.15;7.25;;;18.00;99.90;;;;;;5060176;28;20498;-56
2023/07/22 09:59:12;;;;;;;9.88;7.10;;;17.90;99.90;;;;;;5044577;28;20404;-48
2023/07/22 10:01:39;;;;;;;12.25;7.47;;;17.80;99.90;;;;;;5045553;28;20047;-57
2023/07/22 10:04:05;;;;;;;11.45;7.80;;;17.80;99.90;;;;;;5044788;28;20045;-55
2023/07/22 10:06:33;;;;;;;11.30;7.00;;;17.80;99.90;;;;;;5043656;28;20513;-49
2023/07/22 10:09:07;;;;;;;15.75;7.47;;;17.80;99.90;;;;;;5045238;28;20407;-50
2023/07/22 10:11:34;;;;;;;10.85;6.88;;;17.80;99.90;;;;;;5044908;28;20037;-54
2023/07/22 10:14:03;;;;;;;11.38;7.35;;;17.90;99.90;;;;;;5046759;28;20033;-56
2023/07/22 10:16:30;;;;;;;10.48;7.47;;;17.90;99.90;;;;;;5052409;28;20132;-51
2023/07/22 10:18:57;;;;;;;12.43;6.75;;;17.90;99.90;;;;;;5044452;28;20041;-52
2023/07/22 10:21:24;;;;;;;12.63;7.60;;;18.00;99.90;;;;;;5044891;28;20048;-55
2023/07/22 10:23:50;;;;;;;10.88;7.10;;;17.90;99.90;;;;;;5045491;28;20048;-55
2023/07/22 10:26:17;;;;;;;10.40;7.32;;;18.00;99.90;;;;;;5044579;28;20080;-53
2023/07/22 10:28:45;;;;;;;11.48;6.80;;;18.00;99.90;;;;;;5043887;28;20130;-54
2023/07/22 10:31:12;;;;;;;11.35;6.22;;;18.10;99.90;;;;;;5044831;28;20081;-53
2023/07/22 10:33:38;;;;;;;10.45;6.63;;;18.00;99.90;;;;;;5045440;28;20057;-51
2023/07/22 10:36:15;;;;;;;7.75;5.25;;;18.00;99.90;;;;;;5043992;28;20036;-55
2023/07/22 10:38:41;;;;;;;8.95;5.57;;;18.00;99.90;;;;;;5044709;28;20053;-50
2023/07/22 10:41:16;;;;;;;6.80;5.15;;;18.00;99.90;;;;;;5044995;28;20045;-51
2023/07/22 10:43:54;;;;;;;8.65;4.75;;;17.90;99.90;;;;;;5044105;28;20076;-50
2023/07/22 10:46:34;;;;;;;9.00;5.20;;;17.90;99.90;;;;;;5044531;28;20120;-47
2023/07/22 10:49:15;;;;;;;9.50;5.65;;;17.90;99.90;;;;;;5044407;28;20357;-53
2023/07/22 10:51:41;;;;;;;9.00;5.85;;;17.90;99.90;;;;;;5044961;28;20029;-57
2023/07/22 10:54:14;;;;;;;9.48;5.78;;;17.80;99.90;;;;;;5043788;28;20047;-49
2023/07/22 10:56:44;;;;;;;10.25;6.07;;;17.90;99.90;;;;;;5044874;28;20049;-51
2023/07/22 10:59:11;;;;;;;9.65;6.20;;;17.90;99.90;;;;;;5044828;28;20683;-58
2023/07/22 11:01:39;;;;;;;8.00;5.55;;;17.90;99.90;;;;;;5060769;28;20044;-51
2023/07/22 11:04:30;;;;;;;10.50;6.25;;;18.00;99.90;;;;;;5046478;28;20451;-54
2023/07/22 11:06:57;;;;;;;10.07;6.28;;;18.00;99.90;;;;;;5049083;28;20082;-55
2023/07/22 11:09:35;;;;;;;8.48;5.10;;;18.10;99.90;;;;;;5045438;28;20156;-55
2023/07/22 11:12:08;;;;;;;8.05;5.28;;;18.10;99.90;;;;;;5054034;28;20072;-57
2023/07/22 11:15:03;;;;;;;8.10;5.13;;;18.20;99.90;;;;;;5046192;28;20060;-58
2023/07/22 11:17:31;;;;;;;9.65;5.78;;;18.10;99.90;;;;;;5055900;28;20057;-57
2023/07/22 11:19:58;;;;;;;8.75;5.78;;;18.00;99.90;;;;;;5044733;28;20052;-53
2023/07/22 11:22:24;;;;;;;7.95;5.97;;;17.90;99.90;;;;;;5043902;28;20115;-55
2023/07/22 11:24:49;;;;;;;8.80;6.28;;;17.90;99.90;;;;;;5059355;28;20152;-54
2023/07/22 11:27:15;;;;;;;7.57;5.30;;;17.70;99.90;;;;;;5058978;28;20028;-54
2023/07/22 11:29:41;;;;;;;8.02;6.20;;;17.60;99.90;;;;;;5058284;28;20040;-52
2023/07/22 11:32:15;;;;;;;9.88;6.25;;;17.50;99.90;;;;;;5063632;28;20082;-56
2023/07/22 11:34:40;;;;;;;7.20;5.45;;;17.40;99.90;;;;;;5064488;28;20109;-52
2023/07/22 11:37:06;;;;;;;9.02;6.20;;;17.40;99.90;;;;;;5061313;28;20040;-52
2023/07/22 11:39:32;;;;;;;9.40;6.53;;;17.40;99.90;;;;;;5056967;28;20515;-50
2023/07/22 11:42:01;;;;;;;9.15;6.30;;;17.50;99.90;;;;;;5062702;28;20423;-50
2023/07/22 11:44:28;;;;;;;9.07;6.68;;;17.50;99.90;;;;;;5062666;28;20102;-54
2023/07/22 11:47:07;;;;;;;9.95;6.55;;;17.50;99.90;;;;;;5063079;28;20055;-52
2023/07/22 11:49:40;;;;;;;9.30;7.07;;;17.40;99.90;;;;;;5062982;28;20097;-55
2023/07/22 11:52:14;;;;;;;10.40;7.97;;;17.30;99.90;;;;;;5062957;28;20040;-50
2023/07/22 11:54:42;;;;;;;9.32;7.03;;;17.20;99.90;;;;;;5063178;28;20041;-56
2023/07/22 11:57:14;;;;;;;9.30;6.85;;;17.20;99.90;;;;;;5063390;28;20076;-67
2023/07/22 11:59:50;;;;;;;9.40;7.35;;;17.10;99.90;;;;;;5062914;28;20445;-54
2023/07/22 12:02:18;;;;;;;9.50;7.50;;;17.20;99.90;;;;;;5062355;28;20123;-52
2023/07/22 12:05:00;;;;;;;9.60;7.70;;;17.10;99.90;;;;;;5063101;28;20733;-52
2023/07/22 12:07:28;;;;;;;9.18;6.65;;;17.00;99.90;;;;;;5055772;28;20487;-55
2023/07/22 12:09:55;;;;;;;10.43;6.78;;;17.00;99.90;;;;;;5050997;28;20449;-55
2023/07/22 12:12:21;;;;;;;9.32;7.10;;;16.90;99.90;;;;;;5051281;28;20041;-53
2023/07/22 12:14:46;;;;;;;11.90;7.75;;;16.80;99.90;;;;;;5049128;28;20055;-50
2023/07/22 12:17:12;;;;;;;10.82;8.18;;;16.80;99.90;;;;;;5042145;28;20043;-53
2023/07/22 12:19:37;;;;;;;10.25;8.40;;;16.60;99.90;;;;;;5042397;28;20048;-51
2023/07/22 12:22:03;;;;;;;10.13;7.82;;;16.50;99.90;;;;;;5042018;28;20044;-52
2023/07/22 12:24:30;;;;;;;10.25;8.45;;;16.40;99.90;;;;;;5041261;28;20048;-54
2023/07/22 12:26:55;;;;;;;10.95;9.02;;;16.40;99.90;;;;;;5057919;28;20049;-53
2023/07/22 12:29:22;;;;;;;12.85;9.13;;;16.30;99.90;;;;;;5041840;28;20037;-49
2023/07/22 12:31:47;;;;;;;14.00;9.90;;;16.20;99.90;;;;;;5043089;28;20550;-53
2023/07/22 12:34:13;;;;;;;12.90;8.98;;;16.10;99.90;;;;;;5042215;28;20037;-51
2023/07/22 12:36:39;;;;;;;10.88;9.18;;;16.10;99.90;;;;;;5042386;28;20135;-53
2023/07/22 12:39:05;;;;;;;12.85;9.38;;;16.20;99.90;;;;;;5042171;28;20053;-51